Time;durP1;ratioP1;P1;durP2;ratioP2;P2;SDS_P1;SDS_P2;PMS_P1;PMS_P2;Temp;Humidity;BMP_temperature;BMP_pressure;BME280_temperature;BME280_humidity;BME280_pressure;Samples;Min_cycle;Max_cycle;Signal;HPM_P1;HPM_P2
2022/06/09 00:01:22;;;;;;;16.70;16.10;;;15.80;61.70;;;;;;5034223;28;20422;-84
2022/06/09 00:03:57;;;;;;;16.50;15.90;;;15.80;61.10;;;;;;5034019;28;20918;-83
2022/06/09 00:06:27;;;;;;;16.73;16.03;;;15.80;61.40;;;;;;5031778;28;20557;-83
2022/06/09 00:08:53;;;;;;;16.33;15.73;;;15.80;61.50;;;;;;5032574;28;20411;-83
2022/06/09 00:11:23;;;;;;;16.40;15.80;;;15.80;61.70;;;;;;5033876;28;20492;-83
2022/06/09 00:13:49;;;;;;;17.40;16.37;;;15.90;61.20;;;;;;5032387;28;20434;-82
2022/06/09 00:16:15;;;;;;;17.00;16.40;;;15.90;60.80;;;;;;5032678;28;20447;-82
2022/06/09 00:18:42;;;;;;;16.30;15.70;;;15.80;61.10;;;;;;5033916;28;20489;-83
2022/06/09 00:21:08;;;;;;;16.60;16.00;;;15.80;61.10;;;;;;5032205;28;20185;-83
2022/06/09 00:23:34;;;;;;;16.03;15.43;;;15.90;61.70;;;;;;5032671;28;20422;-83
2022/06/09 00:26:00;;;;;;;16.23;15.73;;;15.90;61.10;;;;;;5032950;28;20779;-83
2022/06/09 00:28:26;;;;;;;16.60;16.00;;;15.90;60.80;;;;;;5032557;28;20423;-83
2022/06/09 00:30:52;;;;;;;16.83;15.80;;;15.90;60.80;;;;;;5033177;28;20208;-85
2022/06/09 00:33:18;;;;;;;16.60;16.00;;;15.90;61.20;;;;;;5032553;28;20443;-84
2022/06/09 00:35:44;;;;;;;16.83;16.10;;;15.80;61.10;;;;;;5032388;28;20458;-84
2022/06/09 00:38:10;;;;;;;17.40;16.80;;;15.90;61.50;;;;;;5032380;28;20490;-84
2022/06/09 00:40:35;;;;;;;17.50;16.90;;;15.90;61.50;;;;;;5031182;28;20179;-83
2022/06/09 00:43:03;;;;;;;17.30;16.70;;;15.90;61.10;;;;;;5032546;28;20208;-84
2022/06/09 00:45:38;;;;;;;16.77;16.17;;;15.90;60.90;;;;;;5032950;28;20176;-83
2022/06/09 00:48:24;;;;;;;16.67;16.07;;;15.90;61.10;;;;;;5032158;28;20864;-84
2022/06/09 00:51:20;;;;;;;16.00;15.50;;;15.80;61.10;;;;;;5032315;28;20459;-84
2022/06/09 00:53:48;;;;;;;15.83;15.13;;;15.80;62.80;;;;;;5028516;28;20474;-84
2022/06/09 00:56:15;;;;;;;17.13;16.13;;;15.90;64.10;;;;;;5031123;28;20911;-84
2022/06/09 00:58:44;;;;;;;16.00;15.50;;;15.90;63.30;;;;;;5031892;28;20930;-84
2022/06/09 01:01:13;;;;;;;16.10;15.60;;;15.90;63.30;;;;;;5033297;28;20412;-84
2022/06/09 01:03:52;;;;;;;15.53;15.03;;;15.80;65.40;;;;;;5031615;28;20423;-84
2022/06/09 01:06:22;;;;;;;15.77;15.20;;;15.80;66.00;;;;;;5030835;28;20502;-84
2022/06/09 01:08:58;;;;;;;15.40;14.90;;;15.80;67.60;;;;;;5033079;28;20415;-83
2022/06/09 01:11:24;;;;;;;14.67;14.17;;;15.70;66.50;;;;;;5031514;28;20411;-85
2022/06/09 01:13:50;;;;;;;15.03;14.53;;;15.50;67.90;;;;;;5030880;28;20761;-84
2022/06/09 01:16:30;;;;;;;14.60;14.10;;;15.50;68.60;;;;;;5032635;28;20423;-84
2022/06/09 01:19:22;;;;;;;14.50;14.00;;;15.50;68.80;;;;;;5032307;28;20443;-84
2022/06/09 01:21:50;;;;;;;13.80;13.40;;;15.50;69.00;;;;;;5031906;28;20921;-85
2022/06/09 01:24:43;;;;;;;14.17;13.67;;;15.40;69.20;;;;;;5031568;28;20510;-84
2022/06/09 01:27:15;;;;;;;13.33;12.93;;;15.20;71.10;;;;;;5032221;28;20427;-84
2022/06/09 01:29:43;;;;;;;13.83;13.23;;;15.10;72.00;;;;;;5032203;28;20463;-84
2022/06/09 01:32:12;;;;;;;13.60;13.10;;;15.10;72.90;;;;;;5029802;28;20424;-84
2022/06/09 01:35:03;;;;;;;12.83;12.43;;;15.10;74.40;;;;;;5030052;28;20423;-84
2022/06/09 01:37:45;;;;;;;13.27;12.60;;;15.00;73.50;;;;;;5032142;28;20419;-84
2022/06/09 01:40:14;;;;;;;12.67;12.27;;;15.00;73.70;;;;;;5031942;28;20911;-84
2022/06/09 01:42:48;;;;;;;12.57;12.17;;;14.90;75.90;;;;;;5030453;28;20420;-84
2022/06/09 01:45:26;;;;;;;12.50;12.00;;;14.80;76.20;;;;;;5029670;28;20434;-84
2022/06/09 01:48:12;;;;;;;12.67;12.27;;;14.80;77.50;;;;;;5031569;28;20907;-84
2022/06/09 01:51:00;;;;;;;12.13;11.70;;;14.80;77.20;;;;;;5029211;28;21009;-84
2022/06/09 01:53:32;;;;;;;12.50;11.90;;;14.80;77.70;;;;;;5031667;28;20424;-84
2022/06/09 01:56:11;;;;;;;11.50;11.13;;;14.70;78.60;;;;;;5030316;28;20541;-84
2022/06/09 01:58:43;;;;;;;11.20;10.80;;;14.80;78.60;;;;;;5031401;28;20430;-84
2022/06/09 02:01:12;;;;;;;11.10;10.80;;;14.80;80.60;;;;;;5031190;28;20419;-84
2022/06/09 02:03:41;;;;;;;11.00;10.60;;;14.70;80.10;;;;;;5031063;28;20423;-84
2022/06/09 02:06:09;;;;;;;10.77;10.47;;;14.80;80.80;;;;;;5031534;28;20510;-84
2022/06/09 02:08:35;;;;;;;11.10;10.80;;;14.80;79.30;;;;;;5030136;28;20423;-84
2022/06/09 02:11:07;;;;;;;12.10;11.70;;;14.80;78.50;;;;;;5030155;28;20474;-84
2022/06/09 02:13:45;;;;;;;11.60;11.10;;;14.60;78.80;;;;;;5030157;28;20425;-84
2022/06/09 02:16:16;;;;;;;11.37;11.07;;;14.70;80.00;;;;;;5029248;28;20475;-84
2022/06/09 02:18:45;;;;;;;11.90;11.50;;;14.70;77.30;;;;;;5031657;28;20472;-84
2022/06/09 02:21:25;;;;;;;12.50;11.80;;;14.70;77.80;;;;;;5030421;28;20427;-84
2022/06/09 02:23:53;;;;;;;12.27;11.87;;;14.60;78.40;;;;;;5030780;28;20423;-84
2022/06/09 02:26:19;;;;;;;11.60;11.13;;;14.60;78.70;;;;;;5031120;28;20892;-84
2022/06/09 02:28:44;;;;;;;11.27;10.87;;;14.60;79.90;;;;;;5029122;28;20420;-84
2022/06/09 02:31:10;;;;;;;11.67;11.17;;;14.60;79.30;;;;;;5030494;28;20421;-84
2022/06/09 02:33:36;;;;;;;12.37;11.87;;;14.70;78.60;;;;;;5030057;28;20179;-84
2022/06/09 02:36:03;;;;;;;12.20;11.80;;;14.70;78.20;;;;;;5029584;28;20478;-84
2022/06/09 02:38:29;;;;;;;12.67;12.27;;;14.70;76.90;;;;;;5029840;28;20459;-84
2022/06/09 02:40:55;;;;;;;12.63;12.23;;;14.70;75.70;;;;;;5030826;28;20481;-84
2022/06/09 02:43:22;;;;;;;12.57;12.17;;;14.70;74.90;;;;;;5027729;28;20177;-84
2022/06/09 02:45:48;;;;;;;13.60;13.00;;;14.60;75.60;;;;;;5030764;28;20418;-84
2022/06/09 02:48:14;;;;;;;12.90;12.50;;;14.60;75.60;;;;;;5029513;28;20423;-85
2022/06/09 02:50:41;;;;;;;12.30;11.90;;;14.70;74.70;;;;;;5028810;28;20208;-85
2022/06/09 02:53:07;;;;;;;13.50;12.70;;;14.70;75.80;;;;;;5030639;28;20473;-85
2022/06/09 02:55:33;;;;;;;12.43;12.03;;;14.70;75.70;;;;;;5027822;28;20426;-85
2022/06/09 02:57:59;;;;;;;12.97;12.53;;;14.70;75.00;;;;;;5030173;28;20420;-85
2022/06/09 03:00:25;;;;;;;12.93;12.43;;;14.60;74.40;;;;;;5029562;28;20951;-85
2022/06/09 03:02:57;;;;;;;13.30;12.90;;;14.60;76.70;;;;;;5029948;28;20292;-85
2022/06/09 03:05:24;;;;;;;13.03;12.63;;;14.60;76.30;;;;;;5030030;28;20530;-85
2022/06/09 03:07:50;;;;;;;14.20;13.70;;;14.50;76.40;;;;;;5029762;28;20422;-85
2022/06/09 03:10:16;;;;;;;13.53;13.10;;;14.50;78.10;;;;;;5030658;28;20455;-84
2022/06/09 03:12:42;;;;;;;13.87;13.37;;;14.60;77.70;;;;;;5030296;28;20695;-84
2022/06/09 03:15:18;;;;;;;12.87;12.47;;;14.60;75.10;;;;;;5028711;28;20423;-84
2022/06/09 03:17:47;;;;;;;13.50;13.00;;;14.60;75.60;;;;;;5030502;28;20415;-84
2022/06/09 03:20:31;;;;;;;14.23;13.73;;;14.60;75.60;;;;;;5028516;28;20437;-85
2022/06/09 03:22:57;;;;;;;15.17;14.03;;;14.60;75.50;;;;;;5027860;28;20869;-84
2022/06/09 03:25:23;;;;;;;15.07;14.50;;;14.60;73.00;;;;;;5026653;28;20425;-84
2022/06/09 03:27:49;;;;;;;15.40;14.70;;;14.60;73.50;;;;;;5027047;28;20177;-85
2022/06/09 03:30:16;;;;;;;14.23;13.63;;;14.60;74.70;;;;;;5030734;28;20467;-84
2022/06/09 03:32:41;;;;;;;14.67;14.10;;;14.50;75.50;;;;;;5030525;28;20179;-85
2022/06/09 03:35:08;;;;;;;15.30;14.70;;;14.50;75.50;;;;;;5030883;28;20420;-85
2022/06/09 03:37:35;;;;;;;15.13;14.63;;;14.60;75.70;;;;;;5030313;28;20177;-86
2022/06/09 03:40:01;;;;;;;14.90;14.40;;;14.50;75.50;;;;;;5030718;28;20426;-85
2022/06/09 03:42:26;;;;;;;14.67;14.03;;;14.50;75.50;;;;;;5030494;28;20443;-85
2022/06/09 03:44:52;;;;;;;14.67;14.13;;;14.60;73.80;;;;;;5030779;28;20881;-85
2022/06/09 03:47:18;;;;;;;14.43;13.93;;;14.50;74.10;;;;;;5029731;28;20176;-84
2022/06/09 03:49:43;;;;;;;14.13;13.63;;;14.60;75.20;;;;;;5027975;28;20200;-84
2022/06/09 03:52:09;;;;;;;15.10;14.60;;;14.60;72.70;;;;;;5030355;28;20268;-84
2022/06/09 03:54:35;;;;;;;16.53;15.73;;;14.70;72.50;;;;;;5030205;28;20212;-84
2022/06/09 03:57:00;;;;;;;15.30;14.77;;;14.60;71.00;;;;;;5024241;28;20215;-83
2022/06/09 03:59:26;;;;;;;14.93;14.43;;;14.60;73.90;;;;;;5025929;28;20549;-85
2022/06/09 04:01:51;;;;;;;14.90;14.40;;;14.70;73.60;;;;;;5028136;28;20191;-85
2022/06/09 04:04:17;;;;;;;15.00;14.40;;;14.70;74.10;;;;;;5029787;28;20259;-84
2022/06/09 04:06:44;;;;;;;17.10;16.10;;;14.70;74.20;;;;;;5027499;28;20433;-84
2022/06/09 04:09:11;;;;;;;16.23;15.57;;;14.70;73.60;;;;;;5030531;28;20212;-83
2022/06/09 04:11:36;;;;;;;16.43;15.63;;;14.70;72.50;;;;;;5031617;28;20442;-84
2022/06/09 04:14:02;;;;;;;16.40;15.60;;;14.60;71.90;;;;;;5029750;28;20804;-84
2022/06/09 04:16:34;;;;;;;15.93;15.33;;;14.60;74.10;;;;;;5025517;28;20188;-84
2022/06/09 04:19:03;;;;;;;16.00;15.40;;;14.70;71.60;;;;;;5003681;28;20213;-84
2022/06/09 04:21:31;;;;;;;15.73;15.13;;;14.60;71.60;;;;;;4987348;28;20544;-84
2022/06/09 04:23:57;;;;;;;15.87;15.27;;;14.70;69.80;;;;;;4997127;28;20440;-84
2022/06/09 04:26:26;;;;;;;16.17;15.57;;;14.70;70.10;;;;;;4997681;28;20448;-84
2022/06/09 04:28:52;;;;;;;15.60;15.00;;;14.70;70.80;;;;;;4996260;28;20452;-84
2022/06/09 04:31:20;;;;;;;16.30;15.40;;;14.60;71.90;;;;;;4998018;28;20843;-84
2022/06/09 04:33:46;;;;;;;14.10;13.53;;;14.70;71.20;;;;;;4996192;28;20988;-84
2022/06/09 04:36:15;;;;;;;16.03;15.43;;;14.70;71.20;;;;;;4997071;28;20448;-84
2022/06/09 04:38:40;;;;;;;16.23;15.63;;;14.60;69.60;;;;;;5000707;28;20225;-84
2022/06/09 04:41:11;;;;;;;15.47;14.83;;;14.60;70.70;;;;;;4999493;28;20463;-87
2022/06/09 04:43:38;;;;;;;15.70;15.10;;;14.70;71.50;;;;;;4993231;28;20221;-86
2022/06/09 04:46:05;;;;;;;15.67;14.97;;;14.60;70.60;;;;;;5001197;28;20525;-84
2022/06/09 04:48:32;;;;;;;16.63;15.93;;;14.60;70.10;;;;;;4994308;28;21020;-83
2022/06/09 04:50:58;;;;;;;15.50;14.97;;;14.60;68.00;;;;;;4995470;28;21000;-83
2022/06/09 04:53:24;;;;;;;16.20;15.60;;;14.70;70.00;;;;;;4998088;28;20460;-83
2022/06/09 04:55:49;;;;;;;16.43;15.53;;;14.50;70.50;;;;;;4996337;28;20462;-83
2022/06/09 04:58:15;;;;;;;16.23;15.63;;;14.60;70.60;;;;;;4993131;28;20229;-83
2022/06/09 05:00:44;;;;;;;16.70;15.90;;;14.60;69.90;;;;;;4997228;28;20986;-83
2022/06/09 05:03:13;;;;;;;17.33;16.67;;;14.60;69.30;;;;;;4995385;28;21119;-83
2022/06/09 05:05:43;;;;;;;17.83;16.93;;;14.50;68.80;;;;;;4997037;28;20502;-83
2022/06/09 05:08:11;;;;;;;17.57;16.87;;;14.60;68.90;;;;;;4995099;28;20464;-84
2022/06/09 05:10:36;;;;;;;18.53;17.40;;;14.60;66.70;;;;;;4999057;28;20464;-83
2022/06/09 05:13:05;;;;;;;17.13;16.43;;;14.50;66.60;;;;;;4997353;28;20466;-84
2022/06/09 05:15:33;;;;;;;16.90;15.90;;;14.50;68.00;;;;;;5000214;28;20228;-83
2022/06/09 05:17:59;;;;;;;16.60;15.80;;;14.50;69.10;;;;;;4996143;28;20495;-83
2022/06/09 05:20:25;;;;;;;17.23;16.53;;;14.50;67.60;;;;;;4995310;28;21111;-82
2022/06/09 05:22:53;;;;;;;18.50;17.70;;;14.50;65.40;;;;;;4997824;28;20256;-89
2022/06/09 05:25:19;;;;;;;17.33;16.37;;;14.50;65.90;;;;;;5011047;28;20428;-81
2022/06/09 05:27:45;;;;;;;17.10;16.50;;;14.50;66.90;;;;;;5011671;28;20444;-82
2022/06/09 05:30:15;;;;;;;18.23;17.43;;;14.50;66.60;;;;;;5009985;28;20475;-84
2022/06/09 05:32:41;;;;;;;18.80;17.60;;;14.50;65.60;;;;;;5010131;28;20178;-84
2022/06/09 05:35:07;;;;;;;18.87;17.80;;;14.60;67.10;;;;;;5011477;28;20826;-83
2022/06/09 05:45:46;;;;;;;20.00;19.07;;;14.80;63.70;;;;;;5010908;28;20438;-83
2022/06/09 05:48:12;;;;;;;20.43;19.53;;;14.90;63.40;;;;;;5011877;28;20428;-83
2022/06/09 05:50:38;;;;;;;18.90;18.20;;;15.00;61.40;;;;;;5010494;28;20975;-82
2022/06/09 05:53:04;;;;;;;20.70;19.70;;;15.00;61.00;;;;;;5010948;28;20268;-83
2022/06/09 05:55:30;;;;;;;19.80;19.00;;;15.10;60.70;;;;;;5008772;28;20181;-82
2022/06/09 05:57:55;;;;;;;19.97;19.13;;;15.10;60.90;;;;;;5004619;28;20437;-82
2022/06/09 06:00:21;;;;;;;19.63;18.53;;;15.20;59.40;;;;;;5007562;28;20209;-83
2022/06/09 06:02:47;;;;;;;18.80;18.03;;;15.20;59.50;;;;;;5007837;28;20324;-83
2022/06/09 06:06:33;;;;;;;19.50;18.70;;;15.30;58.60;;;;;;5007540;28;20428;-82
2022/06/09 06:07:58;;;;;;;19.33;18.57;;;15.30;60.20;;;;;;4992960;28;20268;-83
2022/06/09 06:10:24;;;;;;;19.23;18.50;;;15.40;59.80;;;;;;5006678;28;20615;-83
2022/06/09 06:12:50;;;;;;;19.60;18.60;;;15.40;57.80;;;;;;5006808;28;20452;-83
2022/06/09 06:15:16;;;;;;;20.63;18.80;;;15.50;57.10;;;;;;5008488;28;20409;-82
2022/06/09 06:17:42;;;;;;;19.77;18.87;;;15.50;57.20;;;;;;5006657;28;20182;-83
2022/06/09 06:20:09;;;;;;;19.63;18.80;;;15.50;56.80;;;;;;5007106;28;20972;-83
2022/06/09 06:22:37;;;;;;;20.53;19.30;;;15.60;56.30;;;;;;5007587;28;20182;-83
2022/06/09 06:25:06;;;;;;;20.17;19.20;;;15.60;56.90;;;;;;5007990;28;20425;-83
2022/06/09 06:27:31;;;;;;;20.00;19.20;;;15.70;58.00;;;;;;4990857;28;20421;-83
2022/06/09 06:29:57;;;;;;;21.37;20.57;;;15.80;57.20;;;;;;4991548;28;20556;-83
2022/06/09 06:32:23;;;;;;;22.20;21.07;;;15.80;55.10;;;;;;5007062;28;20622;-82
2022/06/09 06:34:48;;;;;;;23.07;21.57;;;15.90;56.20;;;;;;5007647;28;20180;-83
2022/06/09 06:37:14;;;;;;;22.70;21.80;;;15.90;55.90;;;;;;4990714;28;20608;-83
2022/06/09 06:39:40;;;;;;;21.70;20.70;;;16.00;53.90;;;;;;4991315;28;20631;-83
2022/06/09 06:42:06;;;;;;;21.73;20.73;;;16.00;55.40;;;;;;4990924;28;20441;-82
2022/06/09 06:44:32;;;;;;;21.53;20.53;;;16.10;55.30;;;;;;4991828;28;20188;-82
2022/06/09 06:46:58;;;;;;;23.60;22.50;;;16.00;56.20;;;;;;4991646;28;20192;-81
2022/06/09 06:49:23;;;;;;;22.60;21.53;;;16.10;54.20;;;;;;4991710;28;20552;-82
2022/06/09 06:51:49;;;;;;;23.13;22.13;;;16.20;53.00;;;;;;4991680;28;20178;-82
2022/06/09 06:54:14;;;;;;;23.40;22.20;;;16.10;54.10;;;;;;4991332;28;20217;-83
2022/06/09 06:56:40;;;;;;;23.27;22.13;;;16.20;52.10;;;;;;4991460;28;20261;-81
2022/06/09 06:59:06;;;;;;;23.43;22.23;;;16.20;50.80;;;;;;4991757;28;20170;-81
2022/06/09 07:01:31;;;;;;;23.43;22.43;;;16.20;51.40;;;;;;4991775;28;20174;-81
2022/06/09 07:03:57;;;;;;;24.20;23.00;;;16.20;50.80;;;;;;4991108;28;20177;-82
2022/06/09 07:06:24;;;;;;;23.47;22.30;;;16.20;49.00;;;;;;4992983;28;20409;-81
2022/06/09 07:08:49;;;;;;;24.60;23.40;;;16.30;48.20;;;;;;4991597;28;20650;-81
2022/06/09 07:11:15;;;;;;;22.73;21.73;;;16.30;47.20;;;;;;4991557;28;20507;-82
2022/06/09 07:13:42;;;;;;;24.07;22.57;;;16.40;47.30;;;;;;4991306;28;20649;-82
2022/06/09 07:16:08;;;;;;;23.30;22.27;;;16.50;47.30;;;;;;4991249;28;20174;-82
2022/06/09 07:18:35;;;;;;;23.40;22.30;;;16.40;46.20;;;;;;4991647;28;20929;-82
2022/06/09 07:21:01;;;;;;;24.93;23.73;;;16.40;46.50;;;;;;4991626;28;20417;-82
2022/06/09 07:23:27;;;;;;;24.47;23.33;;;16.30;47.10;;;;;;4991000;28;20844;-82
2022/06/09 07:25:54;;;;;;;23.47;22.20;;;16.30;47.50;;;;;;4991213;28;20897;-81
2022/06/09 07:28:19;;;;;;;23.27;22.37;;;16.40;48.60;;;;;;4991701;28;20524;-81
2022/06/09 07:30:45;;;;;;;22.53;21.60;;;16.50;47.40;;;;;;4991148;28;20555;-81
2022/06/09 07:33:11;;;;;;;23.73;22.50;;;16.50;47.30;;;;;;4991169;28;20170;-82
2022/06/09 07:35:38;;;;;;;22.73;21.83;;;16.60;47.40;;;;;;4990425;28;20228;-81
2022/06/09 07:38:07;;;;;;;23.23;22.07;;;16.60;46.80;;;;;;4991457;28;20198;-82
2022/06/09 07:40:38;;;;;;;22.00;20.90;;;16.60;45.40;;;;;;4991182;28;20421;-82
2022/06/09 07:43:04;;;;;;;24.20;23.10;;;16.70;45.20;;;;;;4995068;28;20795;-82
2022/06/09 07:45:31;;;;;;;25.63;23.93;;;16.70;44.40;;;;;;4994787;28;20431;-82
2022/06/09 07:47:57;;;;;;;25.50;24.27;;;16.80;44.40;;;;;;4995460;28;20681;-81
2022/06/09 07:50:23;;;;;;;25.03;23.90;;;16.80;44.40;;;;;;4994787;28;20760;-82
2022/06/09 07:52:49;;;;;;;24.77;23.60;;;16.80;43.70;;;;;;4995163;28;20505;-82
2022/06/09 07:55:16;;;;;;;25.57;24.47;;;16.90;44.20;;;;;;4996121;28;20709;-81
2022/06/09 07:57:43;;;;;;;25.60;24.50;;;16.90;42.50;;;;;;4995471;28;20224;-82
2022/06/09 08:00:13;;;;;;;26.57;25.37;;;16.90;42.60;;;;;;4995082;28;20451;-82
2022/06/09 08:02:39;;;;;;;26.97;25.37;;;16.90;42.30;;;;;;4994286;28;20440;-82
2022/06/09 08:05:06;;;;;;;26.00;24.70;;;16.90;43.70;;;;;;4996137;28;20413;-82
2022/06/09 08:07:32;;;;;;;25.40;24.13;;;17.00;43.20;;;;;;5010079;28;20780;-82
2022/06/09 08:09:58;;;;;;;26.17;24.67;;;17.00;41.10;;;;;;5008923;28;20473;-82
2022/06/09 08:12:23;;;;;;;25.63;24.50;;;17.00;42.50;;;;;;5009083;28;20177;-82
2022/06/09 08:14:49;;;;;;;24.73;23.73;;;17.00;42.80;;;;;;5010230;28;20192;-81
2022/06/09 08:17:15;;;;;;;22.70;21.70;;;17.10;42.00;;;;;;5010693;28;20192;-82
2022/06/09 08:19:42;;;;;;;26.73;25.33;;;17.20;40.40;;;;;;5010878;28;20276;-82
2022/06/09 08:22:08;;;;;;;25.13;24.13;;;17.20;40.30;;;;;;5010370;28;20651;-82
2022/06/09 08:24:33;;;;;;;24.90;23.80;;;17.20;41.50;;;;;;5010132;28;20799;-81
2022/06/09 08:27:00;;;;;;;26.23;25.13;;;17.20;41.60;;;;;;5009916;28;20228;-82
2022/06/09 08:29:27;;;;;;;24.80;23.70;;;17.30;42.50;;;;;;4995021;28;20283;-82
2022/06/09 08:31:53;;;;;;;24.73;23.73;;;17.50;42.00;;;;;;4993584;28;20568;-82
2022/06/09 08:34:19;;;;;;;26.00;24.90;;;17.40;41.70;;;;;;4993707;28;20483;-82
2022/06/09 08:36:44;;;;;;;25.50;24.20;;;17.30;41.90;;;;;;4993787;28;20923;-82
2022/06/09 08:39:10;;;;;;;25.43;24.33;;;17.30;42.10;;;;;;4993887;28;20338;-82
2022/06/09 08:41:43;;;;;;;25.13;24.00;;;17.30;42.00;;;;;;4994316;28;20582;-82
2022/06/09 08:44:15;;;;;;;25.20;24.10;;;17.50;41.00;;;;;;4994229;28;20421;-82
2022/06/09 08:46:53;;;;;;;25.37;24.10;;;17.50;39.30;;;;;;4993623;28;20815;-82
2022/06/09 08:49:42;;;;;;;25.27;24.20;;;17.50;38.40;;;;;;4994164;28;20487;-82
2022/06/09 08:52:36;;;;;;;25.30;24.00;;;17.40;40.20;;;;;;4993662;28;20423;-81
2022/06/09 08:55:24;;;;;;;24.23;22.90;;;17.40;39.60;;;;;;4993890;28;20849;-82
2022/06/09 08:57:52;;;;;;;25.80;24.10;;;17.30;38.90;;;;;;4994616;28;20405;-82
2022/06/09 09:00:22;;;;;;;25.90;24.80;;;17.30;38.80;;;;;;4993881;28;20428;-82
2022/06/09 09:03:01;;;;;;;25.37;24.20;;;17.30;37.90;;;;;;4993653;28;20473;-82
2022/06/09 09:05:42;;;;;;;25.37;24.47;;;17.40;38.00;;;;;;4993253;28;20945;-82
2022/06/09 09:08:10;;;;;;;24.53;23.43;;;17.70;38.20;;;;;;4993959;28;20781;-85
2022/06/09 09:10:39;;;;;;;25.77;24.57;;;17.70;38.20;;;;;;4993700;28;20457;-83
2022/06/09 09:13:35;;;;;;;24.67;23.30;;;17.70;37.50;;;;;;4993672;28;20417;-83
2022/06/09 09:16:42;;;;;;;24.47;23.37;;;17.80;38.40;;;;;;5003000;28;20839;-83
2022/06/09 09:19:32;;;;;;;24.67;23.67;;;17.80;36.70;;;;;;4964364;28;20927;-83
2022/06/09 09:22:28;;;;;;;24.90;24.00;;;17.60;36.70;;;;;;4993139;28;20414;-82
2022/06/09 09:25:05;;;;;;;26.23;24.93;;;17.60;38.20;;;;;;4993448;28;20785;-82
2022/06/09 09:27:33;;;;;;;24.03;23.03;;;17.60;37.70;;;;;;4992867;28;20421;-82
2022/06/09 09:30:22;;;;;;;25.23;24.00;;;17.70;37.40;;;;;;4993174;28;20551;-82
2022/06/09 09:32:51;;;;;;;25.50;24.40;;;17.80;38.30;;;;;;4993169;28;20519;-83
2022/06/09 09:35:42;;;;;;;25.50;24.30;;;18.00;36.50;;;;;;4993431;28;20604;-83
2022/06/09 09:38:13;;;;;;;25.80;24.50;;;17.90;37.20;;;;;;4992782;28;20417;-82
2022/06/09 09:40:44;;;;;;;25.80;24.80;;;17.90;38.40;;;;;;4993113;28;20460;-82
2022/06/09 09:43:14;;;;;;;25.70;24.60;;;18.00;37.50;;;;;;4993124;28;20899;-82
2022/06/09 09:45:43;;;;;;;25.37;24.27;;;17.90;38.50;;;;;;4992412;28;20425;-82
2022/06/09 09:48:18;;;;;;;25.50;24.50;;;17.80;38.30;;;;;;4994391;28;20704;-82
2022/06/09 09:50:49;;;;;;;25.07;24.00;;;17.90;38.60;;;;;;4992988;28;20468;-82
2022/06/09 09:53:18;;;;;;;24.97;23.93;;;17.90;38.40;;;;;;4992884;28;20420;-82
2022/06/09 09:56:00;;;;;;;24.97;23.77;;;18.10;38.20;;;;;;4992609;28;20413;-82
2022/06/09 09:58:54;;;;;;;24.60;23.60;;;18.10;38.00;;;;;;4992827;28;20436;-82
2022/06/09 10:01:20;;;;;;;24.00;23.10;;;18.20;35.60;;;;;;4992753;28;20432;-82
2022/06/09 10:09:49;;;;;;;24.10;23.10;;;18.60;33.90;;;;;;4994113;28;20543;-82
2022/06/09 10:12:25;;;;;;;24.07;22.83;;;18.70;35.40;;;;;;4992255;28;20476;-81
2022/06/09 10:15:10;;;;;;;24.67;23.67;;;18.80;35.00;;;;;;4992513;28;20451;-82
2022/06/09 10:18:07;;;;;;;24.53;23.10;;;18.80;34.70;;;;;;4992187;28;20452;-82
2022/06/09 10:21:05;;;;;;;24.47;23.47;;;18.90;34.50;;;;;;4992425;28;20868;-82
2022/06/09 10:23:38;;;;;;;24.43;23.30;;;18.80;34.40;;;;;;4992803;28;20757;-82
2022/06/09 10:26:26;;;;;;;24.60;23.47;;;18.70;36.00;;;;;;4991955;28;20759;-82
2022/06/09 10:29:03;;;;;;;25.33;24.30;;;18.60;34.80;;;;;;4992098;28;20672;-82
2022/06/09 10:31:53;;;;;;;24.17;22.97;;;18.50;35.10;;;;;;4992195;28;20566;-83
2022/06/09 10:34:48;;;;;;;23.53;22.63;;;18.60;34.40;;;;;;4992284;28;20789;-82
2022/06/09 10:37:35;;;;;;;24.70;23.60;;;18.80;34.30;;;;;;4991790;28;20409;-83
2022/06/09 10:40:13;;;;;;;24.70;23.60;;;18.80;33.90;;;;;;4992105;28;20425;-82
2022/06/09 10:43:00;;;;;;;23.50;22.70;;;18.70;34.00;;;;;;4991896;28;20820;-82
2022/06/09 10:45:43;;;;;;;25.60;24.60;;;18.50;34.90;;;;;;4991783;28;20916;-82
2022/06/09 10:57:10;;;;;;;24.37;23.37;;;18.90;29.20;;;;;;4993030;28;20400;-82
2022/06/09 10:59:54;;;;;;;25.30;24.00;;;18.90;30.20;;;;;;4991745;28;20432;-83
2022/06/09 11:02:26;;;;;;;23.67;22.77;;;19.10;31.50;;;;;;4991766;28;20425;-82
2022/06/09 11:04:53;;;;;;;25.80;24.70;;;19.10;32.00;;;;;;4991516;28;20525;-82
2022/06/09 11:07:43;;;;;;;24.77;23.80;;;19.20;33.10;;;;;;4991386;28;20512;-82
2022/06/09 11:10:32;;;;;;;24.30;23.30;;;19.10;32.20;;;;;;4991697;28;20507;-82
2022/06/09 11:13:19;;;;;;;24.00;23.00;;;18.90;32.10;;;;;;4991709;28;20413;-82
2022/06/09 11:16:08;;;;;;;24.03;22.90;;;18.60;31.70;;;;;;4991067;28;20406;-82
2022/06/09 11:19:09;;;;;;;24.17;23.10;;;18.70;32.90;;;;;;4991580;28;20418;-82
2022/06/09 11:21:47;;;;;;;21.90;21.00;;;18.90;31.80;;;;;;4987466;28;20615;-80
2022/06/09 11:24:27;;;;;;;24.07;23.20;;;19.10;31.30;;;;;;4991469;28;20421;-80
2022/06/09 11:27:11;;;;;;;23.67;22.67;;;19.10;31.30;;;;;;4990982;28;20451;-79
2022/06/09 11:30:04;;;;;;;23.90;22.90;;;19.20;31.90;;;;;;4991225;28;20973;-79
2022/06/09 11:32:40;;;;;;;23.50;22.30;;;19.20;32.60;;;;;;4991320;28;20421;-79
2022/06/09 11:35:26;;;;;;;24.23;23.00;;;19.30;33.00;;;;;;4991459;28;20416;-80
2022/06/09 11:38:17;;;;;;;23.93;22.93;;;19.40;31.70;;;;;;4992583;28;20402;-83
2022/06/09 11:41:04;;;;;;;23.80;22.80;;;19.40;31.80;;;;;;4991322;28;20834;-83
2022/06/09 11:43:43;;;;;;;24.70;23.50;;;19.50;33.60;;;;;;4991215;28;20511;-84
2022/06/09 11:46:20;;;;;;;25.07;24.07;;;19.20;33.00;;;;;;4991093;28;20429;-83
2022/06/09 11:48:49;;;;;;;24.13;23.03;;;19.00;33.00;;;;;;4991284;28;20421;-82
2022/06/09 11:51:20;;;;;;;24.50;23.37;;;19.10;33.40;;;;;;4991257;28;20504;-82
2022/06/09 11:53:59;;;;;;;24.47;23.47;;;19.10;34.00;;;;;;4990983;28;20815;-83
2022/06/09 11:56:33;;;;;;;24.47;23.40;;;19.20;32.80;;;;;;4990931;28;20559;-83
2022/06/09 11:59:39;;;;;;;24.60;23.47;;;19.30;33.60;;;;;;4991163;28;20516;-82
2022/06/09 12:02:14;;;;;;;23.70;22.80;;;19.40;32.20;;;;;;4992156;28;20512;-83
2022/06/09 12:04:54;;;;;;;24.70;23.70;;;19.50;31.90;;;;;;4991251;28;20794;-82
2022/06/09 12:07:46;;;;;;;25.20;24.17;;;19.50;30.20;;;;;;4990913;28;20417;-84
2022/06/09 12:10:47;;;;;;;25.00;24.00;;;19.50;31.10;;;;;;4961355;28;20551;-81
2022/06/09 12:13:12;;;;;;;24.47;23.50;;;19.60;31.20;;;;;;4990719;28;20449;-84
2022/06/09 12:16:29;;;;;;;24.47;23.27;;;19.80;30.40;;;;;;4990702;28;20413;-82
2022/06/09 12:19:24;;;;;;;23.80;22.90;;;19.90;29.90;;;;;;4958235;28;20174;-84
2022/06/09 12:22:18;;;;;;;24.07;23.07;;;19.90;29.90;;;;;;4991079;28;20480;-82
2022/06/09 12:25:24;;;;;;;24.98;23.77;;;19.90;30.00;;;;;;4990734;28;20431;-82
2022/06/09 12:27:51;;;;;;;24.13;23.20;;;20.00;28.90;;;;;;4992409;28;20186;-83
2022/06/09 12:30:24;;;;;;;25.20;24.07;;;19.90;28.60;;;;;;4994553;28;20838;-85
2022/06/09 12:33:18;;;;;;;24.23;23.10;;;20.10;28.80;;;;;;4994599;28;20421;-83
2022/06/09 12:36:05;;;;;;;23.63;22.63;;;20.00;28.20;;;;;;4994473;28;20420;-82
2022/06/09 12:38:50;;;;;;;24.00;23.00;;;20.10;27.00;;;;;;4997225;28;20443;-81
2022/06/09 12:41:33;;;;;;;23.63;22.73;;;19.90;27.10;;;;;;5012906;28;20424;-79
2022/06/09 12:44:19;;;;;;;24.43;23.20;;;20.10;27.90;;;;;;5010527;28;20500;-80
2022/06/09 12:46:55;;;;;;;24.50;23.50;;;20.10;25.60;;;;;;4994723;28;20413;-82
2022/06/09 12:49:33;;;;;;;23.50;22.60;;;20.30;25.40;;;;;;5010545;28;20178;-82
2022/06/09 12:51:59;;;;;;;23.90;22.90;;;20.30;25.80;;;;;;5010420;28;20479;-82
2022/06/09 12:54:38;;;;;;;24.60;23.50;;;20.40;26.10;;;;;;4994022;28;20417;-82
2022/06/09 12:57:05;;;;;;;24.67;23.27;;;20.40;27.50;;;;;;5010117;28;20521;-83
2022/06/09 12:59:34;;;;;;;23.63;22.63;;;20.60;26.20;;;;;;4993104;28;20467;-82
2022/06/09 13:02:21;;;;;;;23.90;22.77;;;20.70;26.60;;;;;;5010314;28;20804;-81
2022/06/09 13:04:51;;;;;;;24.03;23.03;;;20.70;25.70;;;;;;5009839;28;20468;-82
2022/06/09 13:07:26;;;;;;;23.80;22.70;;;20.80;26.70;;;;;;4993514;28;20429;-82
2022/06/09 13:10:08;;;;;;;24.33;23.17;;;20.90;26.90;;;;;;5010047;28;20555;-82
2022/06/09 13:12:50;;;;;;;23.87;22.87;;;20.90;27.10;;;;;;4993585;28;20417;-82
2022/06/09 13:15:40;;;;;;;26.93;25.73;;;21.20;27.20;;;;;;5010103;28;20425;-82
2022/06/09 13:18:17;;;;;;;24.50;23.50;;;21.30;26.40;;;;;;5010075;28;20508;-81